Aviation Digital Data Service (ADDS)

Output produced by METARs form (1240 UTC 19 June 2018)
found at http://www.aviationweather.gov/adds/metars/
 
METAR text: KGYI 191235Z AUTO 13007KT 10SM SCT007 SCT013 BKN018 23/21 A3002 RMK AO2 T02250212
Conditions at: KGYI (SHERMAN/DENISON , TX, US) observed 1235 UTC 19 June 2018
Temperature: 22.5°C (72°F)
Dewpoint: 21.2°C (70°F) [RH = 92%]
Pressure (altimeter): 30.02 inches Hg (1016.7 mb)
Winds: from the SE (130 degrees) at 8 MPH (7 knots; 3.6 m/s)
Visibility: 10 or more miles (16+ km)
Ceiling: 1800 feet AGL
Clouds: scattered clouds at 700 feet AGL
scattered clouds at 1300 feet AGL
broken clouds at 1800 feet AGL
Weather: automated observation with no human augmentation;
there may or may not be significant weather present at this time